sensor_id;sensor_type;location;lat;lon;timestamp;P1;durP1;ratioP1;P2;durP2;ratioP2
70132;SDS011;57495;49.922;7.966;2023-12-07T00:00:56;14.52;;;6.50;;
70132;SDS011;57495;49.922;7.966;2023-12-07T00:02:56;11.17;;;5.90;;
70132;SDS011;57495;49.922;7.966;2023-12-07T00:04:59;12.63;;;6.40;;
70132;SDS011;57495;49.922;7.966;2023-12-07T00:07:01;14.48;;;6.18;;
70132;SDS011;57495;49.922;7.966;2023-12-07T00:09:02;17.75;;;6.70;;
70132;SDS011;57495;49.922;7.966;2023-12-07T00:11:03;16.45;;;6.18;;
70132;SDS011;57495;49.922;7.966;2023-12-07T00:13:06;15.73;;;6.30;;
70132;SDS011;57495;49.922;7.966;2023-12-07T00:15:08;13.63;;;6.47;;
70132;SDS011;57495;49.922;7.966;2023-12-07T00:17:09;14.73;;;6.85;;
70132;SDS011;57495;49.922;7.966;2023-12-07T00:19:11;13.82;;;6.50;;
70132;SDS011;57495;49.922;7.966;2023-12-07T00:21:12;14.15;;;7.35;;
70132;SDS011;57495;49.922;7.966;2023-12-07T00:23:13;12.17;;;6.00;;
70132;SDS011;57495;49.922;7.966;2023-12-07T00:25:14;14.98;;;6.00;;
70132;SDS011;57495;49.922;7.966;2023-12-07T00:27:16;20.52;;;7.25;;
70132;SDS011;57495;49.922;7.966;2023-12-07T00:29:18;11.57;;;6.00;;
70132;SDS011;57495;49.922;7.966;2023-12-07T00:31:19;14.18;;;6.82;;
70132;SDS011;57495;49.922;7.966;2023-12-07T00:33:21;13.15;;;6.70;;
70132;SDS011;57495;49.922;7.966;2023-12-07T00:35:21;14.43;;;5.80;;
70132;SDS011;57495;49.922;7.966;2023-12-07T00:37:23;15.48;;;5.50;;
70132;SDS011;57495;49.922;7.966;2023-12-07T00:39:24;14.40;;;6.43;;
70132;SDS011;57495;49.922;7.966;2023-12-07T00:41:26;13.40;;;6.60;;
70132;SDS011;57495;49.922;7.966;2023-12-07T00:43:27;15.02;;;6.35;;
70132;SDS011;57495;49.922;7.966;2023-12-07T00:45:30;12.50;;;5.55;;
70132;SDS011;57495;49.922;7.966;2023-12-07T00:47:32;10.40;;;5.68;;
70132;SDS011;57495;49.922;7.966;2023-12-07T00:49:33;13.23;;;6.28;;
70132;SDS011;57495;49.922;7.966;2023-12-07T00:51:34;13.00;;;5.33;;
70132;SDS011;57495;49.922;7.966;2023-12-07T00:53:35;12.45;;;5.60;;
70132;SDS011;57495;49.922;7.966;2023-12-07T00:55:36;11.57;;;5.47;;
70132;SDS011;57495;49.922;7.966;2023-12-07T00:57:38;11.98;;;6.25;;
70132;SDS011;57495;49.922;7.966;2023-12-07T00:59:40;11.23;;;5.10;;
70132;SDS011;57495;49.922;7.966;2023-12-07T01:01:42;14.23;;;5.20;;
70132;SDS011;57495;49.922;7.966;2023-12-07T01:03:44;12.82;;;6.18;;
70132;SDS011;57495;49.922;7.966;2023-12-07T01:05:45;11.75;;;5.07;;
70132;SDS011;57495;49.922;7.966;2023-12-07T01:07:47;11.90;;;5.85;;
70132;SDS011;57495;49.922;7.966;2023-12-07T01:09:48;11.53;;;5.77;;
70132;SDS011;57495;49.922;7.966;2023-12-07T01:11:49;13.65;;;6.38;;
70132;SDS011;57495;49.922;7.966;2023-12-07T01:13:50;13.03;;;5.83;;
70132;SDS011;57495;49.922;7.966;2023-12-07T01:15:52;11.43;;;5.45;;
70132;SDS011;57495;49.922;7.966;2023-12-07T01:17:55;14.40;;;6.45;;
70132;SDS011;57495;49.922;7.966;2023-12-07T01:19:56;13.00;;;5.63;;
70132;SDS011;57495;49.922;7.966;2023-12-07T01:21:58;13.82;;;6.45;;
70132;SDS011;57495;49.922;7.966;2023-12-07T01:23:59;15.57;;;6.03;;
70132;SDS011;57495;49.922;7.966;2023-12-07T01:26:00;13.70;;;6.18;;
70132;SDS011;57495;49.922;7.966;2023-12-07T01:28:03;13.18;;;5.70;;
70132;SDS011;57495;49.922;7.966;2023-12-07T01:30:05;12.60;;;6.38;;
70132;SDS011;57495;49.922;7.966;2023-12-07T01:32:07;16.08;;;7.43;;
70132;SDS011;57495;49.922;7.966;2023-12-07T01:34:10;14.17;;;5.50;;
70132;SDS011;57495;49.922;7.966;2023-12-07T01:36:11;12.18;;;5.75;;
70132;SDS011;57495;49.922;7.966;2023-12-07T01:38:12;12.73;;;6.00;;
70132;SDS011;57495;49.922;7.966;2023-12-07T01:40:14;13.27;;;5.03;;
70132;SDS011;57495;49.922;7.966;2023-12-07T01:42:16;13.27;;;6.65;;
70132;SDS011;57495;49.922;7.966;2023-12-07T01:44:17;12.97;;;6.00;;
70132;SDS011;57495;49.922;7.966;2023-12-07T01:46:19;14.88;;;6.53;;
70132;SDS011;57495;49.922;7.966;2023-12-07T01:48:20;13.75;;;6.55;;
70132;SDS011;57495;49.922;7.966;2023-12-07T01:50:25;13.57;;;6.60;;
70132;SDS011;57495;49.922;7.966;2023-12-07T01:52:27;13.95;;;6.38;;
70132;SDS011;57495;49.922;7.966;2023-12-07T01:54:30;14.20;;;6.40;;
70132;SDS011;57495;49.922;7.966;2023-12-07T01:56:32;13.02;;;5.82;;
70132;SDS011;57495;49.922;7.966;2023-12-07T01:58:34;16.20;;;5.80;;
70132;SDS011;57495;49.922;7.966;2023-12-07T02:00:35;15.13;;;6.63;;
70132;SDS011;57495;49.922;7.966;2023-12-07T02:02:37;12.48;;;6.13;;
70132;SDS011;57495;49.922;7.966;2023-12-07T02:04:39;12.88;;;6.10;;
70132;SDS011;57495;49.922;7.966;2023-12-07T02:06:42;16.55;;;6.30;;
70132;SDS011;57495;49.922;7.966;2023-12-07T02:08:43;13.38;;;6.43;;
70132;SDS011;57495;49.922;7.966;2023-12-07T02:10:44;12.75;;;6.50;;
70132;SDS011;57495;49.922;7.966;2023-12-07T02:12:46;11.23;;;5.87;;
70132;SDS011;57495;49.922;7.966;2023-12-07T02:14:47;14.20;;;6.88;;
70132;SDS011;57495;49.922;7.966;2023-12-07T02:16:50;14.23;;;6.65;;
70132;SDS011;57495;49.922;7.966;2023-12-07T02:18:57;10.90;;;6.07;;
70132;SDS011;57495;49.922;7.966;2023-12-07T02:21:13;13.20;;;6.70;;
70132;SDS011;57495;49.922;7.966;2023-12-07T02:23:21;12.80;;;5.87;;
70132;SDS011;57495;49.922;7.966;2023-12-07T02:25:26;14.40;;;6.65;;
70132;SDS011;57495;49.922;7.966;2023-12-07T02:27:34;11.77;;;6.25;;
70132;SDS011;57495;49.922;7.966;2023-12-07T02:29:36;14.43;;;6.85;;
70132;SDS011;57495;49.922;7.966;2023-12-07T02:31:38;15.95;;;6.07;;
70132;SDS011;57495;49.922;7.966;2023-12-07T02:33:39;14.47;;;6.10;;
70132;SDS011;57495;49.922;7.966;2023-12-07T02:35:41;13.85;;;6.53;;
70132;SDS011;57495;49.922;7.966;2023-12-07T02:37:44;13.73;;;6.30;;
70132;SDS011;57495;49.922;7.966;2023-12-07T02:39:45;13.65;;;6.65;;
70132;SDS011;57495;49.922;7.966;2023-12-07T02:41:47;15.73;;;7.43;;
70132;SDS011;57495;49.922;7.966;2023-12-07T02:43:52;14.93;;;6.57;;
70132;SDS011;57495;49.922;7.966;2023-12-07T02:45:53;13.45;;;6.18;;
70132;SDS011;57495;49.922;7.966;2023-12-07T02:47:55;15.40;;;6.75;;
70132;SDS011;57495;49.922;7.966;2023-12-07T02:49:57;13.00;;;6.38;;
70132;SDS011;57495;49.922;7.966;2023-12-07T02:51:58;13.82;;;6.63;;
70132;SDS011;57495;49.922;7.966;2023-12-07T02:54:00;13.33;;;5.80;;
70132;SDS011;57495;49.922;7.966;2023-12-07T02:56:01;13.90;;;6.20;;
70132;SDS011;57495;49.922;7.966;2023-12-07T02:58:03;12.73;;;6.10;;
70132;SDS011;57495;49.922;7.966;2023-12-07T03:00:09;17.73;;;6.75;;
70132;SDS011;57495;49.922;7.966;2023-12-07T03:02:12;13.82;;;7.00;;
70132;SDS011;57495;49.922;7.966;2023-12-07T03:04:14;15.87;;;7.00;;
70132;SDS011;57495;49.922;7.966;2023-12-07T03:06:15;13.05;;;6.28;;
70132;SDS011;57495;49.922;7.966;2023-12-07T03:08:17;13.73;;;6.45;;
70132;SDS011;57495;49.922;7.966;2023-12-07T03:10:18;17.17;;;7.60;;
70132;SDS011;57495;49.922;7.966;2023-12-07T03:12:19;15.27;;;6.60;;
70132;SDS011;57495;49.922;7.966;2023-12-07T03:14:20;14.95;;;7.13;;
70132;SDS011;57495;49.922;7.966;2023-12-07T03:16:22;12.47;;;6.80;;
70132;SDS011;57495;49.922;7.966;2023-12-07T03:18:24;14.52;;;6.78;;
70132;SDS011;57495;49.922;7.966;2023-12-07T03:20:25;15.35;;;7.53;;
70132;SDS011;57495;49.922;7.966;2023-12-07T03:22:26;19.53;;;7.10;;
70132;SDS011;57495;49.922;7.966;2023-12-07T03:24:27;16.38;;;7.18;;
70132;SDS011;57495;49.922;7.966;2023-12-07T03:26:29;13.43;;;7.57;;
70132;SDS011;57495;49.922;7.966;2023-12-07T03:28:30;15.02;;;7.28;;
70132;SDS011;57495;49.922;7.966;2023-12-07T03:30:31;15.27;;;6.38;;
70132;SDS011;57495;49.922;7.966;2023-12-07T03:32:34;12.60;;;6.45;;
70132;SDS011;57495;49.922;7.966;2023-12-07T03:34:35;12.57;;;6.70;;
70132;SDS011;57495;49.922;7.966;2023-12-07T03:36:37;15.68;;;7.43;;
70132;SDS011;57495;49.922;7.966;2023-12-07T03:38:39;13.63;;;6.78;;
70132;SDS011;57495;49.922;7.966;2023-12-07T03:40:39;16.07;;;6.30;;
70132;SDS011;57495;49.922;7.966;2023-12-07T03:42:41;14.82;;;7.30;;
70132;SDS011;57495;49.922;7.966;2023-12-07T03:44:42;15.18;;;7.35;;
70132;SDS011;57495;49.922;7.966;2023-12-07T03:46:43;14.32;;;6.82;;
70132;SDS011;57495;49.922;7.966;2023-12-07T03:48:46;15.23;;;6.70;;
70132;SDS011;57495;49.922;7.966;2023-12-07T03:50:47;15.10;;;7.50;;
70132;SDS011;57495;49.922;7.966;2023-12-07T03:52:48;12.82;;;6.93;;
70132;SDS011;57495;49.922;7.966;2023-12-07T03:54:50;15.00;;;7.50;;
70132;SDS011;57495;49.922;7.966;2023-12-07T03:56:50;13.77;;;7.20;;
70132;SDS011;57495;49.922;7.966;2023-12-07T03:58:51;13.07;;;7.35;;
70132;SDS011;57495;49.922;7.966;2023-12-07T04:00:52;16.13;;;7.27;;
70132;SDS011;57495;49.922;7.966;2023-12-07T04:02:54;15.55;;;7.05;;
70132;SDS011;57495;49.922;7.966;2023-12-07T04:04:57;11.32;;;5.03;;
70132;SDS011;57495;49.922;7.966;2023-12-07T04:07:01;10.75;;;5.72;;
70132;SDS011;57495;49.922;7.966;2023-12-07T04:09:03;15.32;;;6.53;;
70132;SDS011;57495;49.922;7.966;2023-12-07T04:11:05;12.33;;;6.37;;
70132;SDS011;57495;49.922;7.966;2023-12-07T04:13:06;14.02;;;6.30;;
70132;SDS011;57495;49.922;7.966;2023-12-07T04:15:07;13.48;;;7.38;;
70132;SDS011;57495;49.922;7.966;2023-12-07T04:17:09;15.03;;;7.33;;
70132;SDS011;57495;49.922;7.966;2023-12-07T04:19:18;14.10;;;6.73;;
70132;SDS011;57495;49.922;7.966;2023-12-07T04:21:19;17.17;;;7.07;;
70132;SDS011;57495;49.922;7.966;2023-12-07T04:23:21;15.73;;;6.88;;
70132;SDS011;57495;49.922;7.966;2023-12-07T04:25:22;14.32;;;7.55;;
70132;SDS011;57495;49.922;7.966;2023-12-07T04:27:24;17.23;;;7.28;;
70132;SDS011;57495;49.922;7.966;2023-12-07T04:29:24;20.23;;;7.57;;
70132;SDS011;57495;49.922;7.966;2023-12-07T04:31:26;16.35;;;7.47;;
70132;SDS011;57495;49.922;7.966;2023-12-07T04:33:27;15.60;;;6.93;;
70132;SDS011;57495;49.922;7.966;2023-12-07T04:35:30;15.63;;;7.30;;
70132;SDS011;57495;49.922;7.966;2023-12-07T04:37:31;14.23;;;7.70;;
70132;SDS011;57495;49.922;7.966;2023-12-07T04:39:33;13.82;;;6.68;;
70132;SDS011;57495;49.922;7.966;2023-12-07T04:41:34;15.50;;;7.55;;
70132;SDS011;57495;49.922;7.966;2023-12-07T04:43:36;18.37;;;8.23;;
70132;SDS011;57495;49.922;7.966;2023-12-07T04:45:37;15.23;;;7.32;;
70132;SDS011;57495;49.922;7.966;2023-12-07T04:47:39;14.85;;;7.25;;
70132;SDS011;57495;49.922;7.966;2023-12-07T04:49:41;17.55;;;7.95;;
70132;SDS011;57495;49.922;7.966;2023-12-07T04:51:44;14.25;;;7.38;;
70132;SDS011;57495;49.922;7.966;2023-12-07T04:53:46;14.87;;;6.93;;
70132;SDS011;57495;49.922;7.966;2023-12-07T04:55:48;16.83;;;7.93;;
70132;SDS011;57495;49.922;7.966;2023-12-07T04:57:50;16.10;;;7.68;;
70132;SDS011;57495;49.922;7.966;2023-12-07T04:59:50;18.00;;;7.97;;
70132;SDS011;57495;49.922;7.966;2023-12-07T05:01:52;16.02;;;8.02;;
70132;SDS011;57495;49.922;7.966;2023-12-07T05:03:53;16.15;;;8.68;;
70132;SDS011;57495;49.922;7.966;2023-12-07T05:05:54;17.67;;;7.43;;
70132;SDS011;57495;49.922;7.966;2023-12-07T05:07:57;14.40;;;7.13;;
70132;SDS011;57495;49.922;7.966;2023-12-07T05:09:59;14.32;;;7.78;;
70132;SDS011;57495;49.922;7.966;2023-12-07T05:11:59;16.20;;;7.70;;
70132;SDS011;57495;49.922;7.966;2023-12-07T05:14:01;14.63;;;6.97;;
70132;SDS011;57495;49.922;7.966;2023-12-07T05:16:01;17.63;;;8.13;;
70132;SDS011;57495;49.922;7.966;2023-12-07T05:18:04;18.02;;;8.07;;
70132;SDS011;57495;49.922;7.966;2023-12-07T05:20:06;14.88;;;7.13;;
70132;SDS011;57495;49.922;7.966;2023-12-07T05:22:08;17.20;;;7.38;;
70132;SDS011;57495;49.922;7.966;2023-12-07T05:24:11;15.93;;;7.53;;
70132;SDS011;57495;49.922;7.966;2023-12-07T05:26:12;16.03;;;8.27;;
70132;SDS011;57495;49.922;7.966;2023-12-07T05:28:14;16.60;;;7.35;;
70132;SDS011;57495;49.922;7.966;2023-12-07T05:30:16;20.60;;;8.27;;
70132;SDS011;57495;49.922;7.966;2023-12-07T05:32:17;17.75;;;7.60;;
70132;SDS011;57495;49.922;7.966;2023-12-07T05:34:19;14.50;;;6.95;;
70132;SDS011;57495;49.922;7.966;2023-12-07T05:36:19;14.53;;;7.00;;
70132;SDS011;57495;49.922;7.966;2023-12-07T05:38:20;15.23;;;7.13;;
70132;SDS011;57495;49.922;7.966;2023-12-07T05:40:23;15.13;;;7.43;;
70132;SDS011;57495;49.922;7.966;2023-12-07T05:42:25;14.63;;;6.90;;
70132;SDS011;57495;49.922;7.966;2023-12-07T05:44:26;14.48;;;7.15;;
70132;SDS011;57495;49.922;7.966;2023-12-07T05:46:28;14.70;;;6.68;;
70132;SDS011;57495;49.922;7.966;2023-12-07T05:48:29;15.35;;;7.65;;
70132;SDS011;57495;49.922;7.966;2023-12-07T05:50:31;14.40;;;6.75;;
70132;SDS011;57495;49.922;7.966;2023-12-07T05:52:32;13.70;;;6.53;;
70132;SDS011;57495;49.922;7.966;2023-12-07T05:54:33;19.55;;;8.10;;
70132;SDS011;57495;49.922;7.966;2023-12-07T05:56:36;19.52;;;8.07;;
70132;SDS011;57495;49.922;7.966;2023-12-07T05:58:38;16.42;;;7.20;;
70132;SDS011;57495;49.922;7.966;2023-12-07T06:00:38;15.23;;;7.57;;
70132;SDS011;57495;49.922;7.966;2023-12-07T06:02:41;14.07;;;7.47;;
70132;SDS011;57495;49.922;7.966;2023-12-07T06:04:42;16.50;;;7.65;;
70132;SDS011;57495;49.922;7.966;2023-12-07T06:06:44;19.13;;;7.75;;
70132;SDS011;57495;49.922;7.966;2023-12-07T06:08:45;17.53;;;8.23;;
70132;SDS011;57495;49.922;7.966;2023-12-07T06:10:46;16.63;;;8.23;;
70132;SDS011;57495;49.922;7.966;2023-12-07T06:12:49;19.63;;;9.13;;
70132;SDS011;57495;49.922;7.966;2023-12-07T06:14:51;20.85;;;7.97;;
70132;SDS011;57495;49.922;7.966;2023-12-07T06:16:51;19.57;;;9.10;;
70132;SDS011;57495;49.922;7.966;2023-12-07T06:18:52;28.08;;;8.20;;
70132;SDS011;57495;49.922;7.966;2023-12-07T06:20:54;27.98;;;9.20;;
70132;SDS011;57495;49.922;7.966;2023-12-07T06:22:54;24.17;;;9.53;;
70132;SDS011;57495;49.922;7.966;2023-12-07T06:24:57;25.45;;;10.38;;
70132;SDS011;57495;49.922;7.966;2023-12-07T06:26:59;29.23;;;10.60;;
70132;SDS011;57495;49.922;7.966;2023-12-07T06:29:03;24.63;;;9.90;;
70132;SDS011;57495;49.922;7.966;2023-12-07T06:31:05;27.60;;;9.40;;
70132;SDS011;57495;49.922;7.966;2023-12-07T06:33:06;43.72;;;10.85;;
70132;SDS011;57495;49.922;7.966;2023-12-07T06:35:08;38.00;;;10.60;;
70132;SDS011;57495;49.922;7.966;2023-12-07T06:37:12;22.05;;;7.95;;
70132;SDS011;57495;49.922;7.966;2023-12-07T06:39:13;29.87;;;9.40;;
70132;SDS011;57495;49.922;7.966;2023-12-07T06:41:15;32.13;;;10.15;;
70132;SDS011;57495;49.922;7.966;2023-12-07T06:43:17;25.70;;;8.50;;
70132;SDS011;57495;49.922;7.966;2023-12-07T06:45:18;43.93;;;9.40;;
70132;SDS011;57495;49.922;7.966;2023-12-07T06:47:20;28.52;;;10.02;;
70132;SDS011;57495;49.922;7.966;2023-12-07T06:49:21;44.70;;;10.90;;
70132;SDS011;57495;49.922;7.966;2023-12-07T06:51:23;52.72;;;10.50;;
70132;SDS011;57495;49.922;7.966;2023-12-07T06:53:24;35.50;;;9.17;;
70132;SDS011;57495;49.922;7.966;2023-12-07T06:55:25;41.10;;;10.55;;
70132;SDS011;57495;49.922;7.966;2023-12-07T06:57:26;51.05;;;10.18;;
70132;SDS011;57495;49.922;7.966;2023-12-07T06:59:28;60.78;;;10.32;;
70132;SDS011;57495;49.922;7.966;2023-12-07T07:01:29;67.72;;;11.55;;
70132;SDS011;57495;49.922;7.966;2023-12-07T07:03:31;59.33;;;11.53;;
70132;SDS011;57495;49.922;7.966;2023-12-07T07:05:32;76.72;;;10.48;;
70132;SDS011;57495;49.922;7.966;2023-12-07T07:07:34;44.40;;;11.52;;
70132;SDS011;57495;49.922;7.966;2023-12-07T07:09:35;29.13;;;7.45;;
70132;SDS011;57495;49.922;7.966;2023-12-07T07:11:37;35.88;;;10.93;;
70132;SDS011;57495;49.922;7.966;2023-12-07T07:13:38;26.57;;;9.73;;
70132;SDS011;57495;49.922;7.966;2023-12-07T07:15:38;40.60;;;10.73;;
70132;SDS011;57495;49.922;7.966;2023-12-07T07:17:41;23.38;;;9.27;;
70132;SDS011;57495;49.922;7.966;2023-12-07T07:19:43;30.88;;;9.88;;
70132;SDS011;57495;49.922;7.966;2023-12-07T07:21:44;31.30;;;11.75;;
70132;SDS011;57495;49.922;7.966;2023-12-07T07:23:46;30.02;;;11.50;;
70132;SDS011;57495;49.922;7.966;2023-12-07T07:25:47;26.88;;;9.90;;
70132;SDS011;57495;49.922;7.966;2023-12-07T07:27:48;26.30;;;10.43;;
70132;SDS011;57495;49.922;7.966;2023-12-07T07:29:50;29.58;;;9.80;;
70132;SDS011;57495;49.922;7.966;2023-12-07T07:31:52;18.25;;;6.47;;
70132;SDS011;57495;49.922;7.966;2023-12-07T07:33:54;30.95;;;10.52;;
70132;SDS011;57495;49.922;7.966;2023-12-07T07:35:56;29.92;;;10.43;;
70132;SDS011;57495;49.922;7.966;2023-12-07T07:37:57;33.88;;;10.27;;
70132;SDS011;57495;49.922;7.966;2023-12-07T07:39:59;24.92;;;10.68;;
70132;SDS011;57495;49.922;7.966;2023-12-07T07:42:00;32.88;;;11.20;;
70132;SDS011;57495;49.922;7.966;2023-12-07T07:44:02;27.48;;;11.60;;
70132;SDS011;57495;49.922;7.966;2023-12-07T07:46:04;30.55;;;11.27;;
70132;SDS011;57495;49.922;7.966;2023-12-07T07:48:05;26.15;;;10.82;;
70132;SDS011;57495;49.922;7.966;2023-12-07T07:50:08;33.45;;;10.48;;
70132;SDS011;57495;49.922;7.966;2023-12-07T07:52:11;35.08;;;11.70;;
70132;SDS011;57495;49.922;7.966;2023-12-07T07:54:11;28.13;;;10.30;;
70132;SDS011;57495;49.922;7.966;2023-12-07T07:56:13;25.05;;;9.73;;
70132;SDS011;57495;49.922;7.966;2023-12-07T07:58:14;30.85;;;11.30;;
70132;SDS011;57495;49.922;7.966;2023-12-07T08:00:16;33.53;;;11.77;;
70132;SDS011;57495;49.922;7.966;2023-12-07T08:02:19;23.23;;;9.38;;
70132;SDS011;57495;49.922;7.966;2023-12-07T08:04:21;61.75;;;9.25;;
70132;SDS011;57495;49.922;7.966;2023-12-07T08:06:24;25.70;;;9.27;;
70132;SDS011;57495;49.922;7.966;2023-12-07T08:08:25;25.73;;;10.18;;
70132;SDS011;57495;49.922;7.966;2023-12-07T08:10:26;29.48;;;9.68;;
70132;SDS011;57495;49.922;7.966;2023-12-07T08:12:28;29.48;;;10.93;;
70132;SDS011;57495;49.922;7.966;2023-12-07T08:14:29;26.42;;;11.18;;
70132;SDS011;57495;49.922;7.966;2023-12-07T08:16:31;27.92;;;10.95;;
70132;SDS011;57495;49.922;7.966;2023-12-07T08:18:32;39.13;;;12.70;;
70132;SDS011;57495;49.922;7.966;2023-12-07T08:20:33;29.38;;;10.15;;
70132;SDS011;57495;49.922;7.966;2023-12-07T08:22:36;28.42;;;11.95;;
70132;SDS011;57495;49.922;7.966;2023-12-07T08:24:38;31.50;;;10.40;;
70132;SDS011;57495;49.922;7.966;2023-12-07T08:26:39;26.60;;;11.32;;
70132;SDS011;57495;49.922;7.966;2023-12-07T08:28:41;30.13;;;10.75;;
70132;SDS011;57495;49.922;7.966;2023-12-07T08:30:42;29.13;;;10.65;;
70132;SDS011;57495;49.922;7.966;2023-12-07T08:32:43;36.93;;;12.57;;
70132;SDS011;57495;49.922;7.966;2023-12-07T08:34:44;30.50;;;14.13;;
70132;SDS011;57495;49.922;7.966;2023-12-07T08:36:46;30.85;;;13.27;;
70132;SDS011;57495;49.922;7.966;2023-12-07T08:38:47;39.07;;;10.93;;
70132;SDS011;57495;49.922;7.966;2023-12-07T08:40:49;28.05;;;11.32;;
70132;SDS011;57495;49.922;7.966;2023-12-07T08:42:50;28.70;;;11.53;;
70132;SDS011;57495;49.922;7.966;2023-12-07T08:44:52;28.55;;;11.73;;
70132;SDS011;57495;49.922;7.966;2023-12-07T08:46:53;31.80;;;12.23;;
70132;SDS011;57495;49.922;7.966;2023-12-07T08:48:54;29.38;;;10.45;;
70132;SDS011;57495;49.922;7.966;2023-12-07T08:50:56;26.45;;;10.25;;
70132;SDS011;57495;49.922;7.966;2023-12-07T08:52:58;24.47;;;8.77;;
70132;SDS011;57495;49.922;7.966;2023-12-07T08:55:01;30.98;;;9.90;;
70132;SDS011;57495;49.922;7.966;2023-12-07T08:57:02;22.73;;;9.85;;
70132;SDS011;57495;49.922;7.966;2023-12-07T08:59:04;21.63;;;8.60;;
70132;SDS011;57495;49.922;7.966;2023-12-07T09:01:05;21.63;;;9.50;;
70132;SDS011;57495;49.922;7.966;2023-12-07T09:03:07;24.43;;;8.83;;
70132;SDS011;57495;49.922;7.966;2023-12-07T09:05:08;23.75;;;8.32;;
70132;SDS011;57495;49.922;7.966;2023-12-07T09:07:09;22.98;;;8.85;;
70132;SDS011;57495;49.922;7.966;2023-12-07T09:09:14;22.98;;;8.73;;
70132;SDS011;57495;49.922;7.966;2023-12-07T09:11:17;23.40;;;8.63;;
70132;SDS011;57495;49.922;7.966;2023-12-07T09:13:18;20.63;;;8.60;;
70132;SDS011;57495;49.922;7.966;2023-12-07T09:15:20;21.75;;;8.30;;
70132;SDS011;57495;49.922;7.966;2023-12-07T09:17:21;23.58;;;8.10;;
70132;SDS011;57495;49.922;7.966;2023-12-07T09:19:22;25.20;;;8.82;;
70132;SDS011;57495;49.922;7.966;2023-12-07T09:21:24;25.00;;;9.50;;
70132;SDS011;57495;49.922;7.966;2023-12-07T09:23:25;26.42;;;9.43;;
70132;SDS011;57495;49.922;7.966;2023-12-07T09:25:27;25.08;;;9.80;;
70132;SDS011;57495;49.922;7.966;2023-12-07T09:27:31;21.45;;;9.48;;
70132;SDS011;57495;49.922;7.966;2023-12-07T09:29:33;22.30;;;9.50;;
70132;SDS011;57495;49.922;7.966;2023-12-07T09:31:34;21.93;;;8.80;;
70132;SDS011;57495;49.922;7.966;2023-12-07T09:33:36;21.33;;;9.27;;
70132;SDS011;57495;49.922;7.966;2023-12-07T09:35:38;18.88;;;8.30;;
70132;SDS011;57495;49.922;7.966;2023-12-07T09:37:40;24.50;;;9.18;;
70132;SDS011;57495;49.922;7.966;2023-12-07T09:39:41;22.20;;;9.15;;
70132;SDS011;57495;49.922;7.966;2023-12-07T09:41:43;19.80;;;8.60;;
70132;SDS011;57495;49.922;7.966;2023-12-07T09:43:45;19.70;;;8.15;;
70132;SDS011;57495;49.922;7.966;2023-12-07T09:45:47;22.23;;;8.80;;
70132;SDS011;57495;49.922;7.966;2023-12-07T09:47:48;22.90;;;7.83;;
70132;SDS011;57495;49.922;7.966;2023-12-07T09:49:50;18.63;;;7.30;;
70132;SDS011;57495;49.922;7.966;2023-12-07T09:51:52;22.95;;;8.35;;
70132;SDS011;57495;49.922;7.966;2023-12-07T09:53:54;17.35;;;7.60;;
70132;SDS011;57495;49.922;7.966;2023-12-07T09:55:56;19.08;;;8.23;;
70132;SDS011;57495;49.922;7.966;2023-12-07T09:57:56;23.23;;;8.63;;
70132;SDS011;57495;49.922;7.966;2023-12-07T09:59:59;17.83;;;8.05;;
70132;SDS011;57495;49.922;7.966;2023-12-07T10:02:01;17.70;;;7.40;;
70132;SDS011;57495;49.922;7.966;2023-12-07T10:04:14;28.92;;;7.15;;
70132;SDS011;57495;49.922;7.966;2023-12-07T10:06:16;21.63;;;7.88;;
70132;SDS011;57495;49.922;7.966;2023-12-07T10:08:25;24.15;;;8.20;;
70132;SDS011;57495;49.922;7.966;2023-12-07T10:10:26;18.55;;;7.75;;
70132;SDS011;57495;49.922;7.966;2023-12-07T10:12:27;19.48;;;8.00;;
70132;SDS011;57495;49.922;7.966;2023-12-07T10:14:28;21.38;;;7.70;;
70132;SDS011;57495;49.922;7.966;2023-12-07T10:16:30;21.58;;;7.80;;
70132;SDS011;57495;49.922;7.966;2023-12-07T10:18:35;19.75;;;7.22;;
70132;SDS011;57495;49.922;7.966;2023-12-07T10:20:36;22.13;;;7.85;;
70132;SDS011;57495;49.922;7.966;2023-12-07T10:22:46;18.88;;;8.63;;
70132;SDS011;57495;49.922;7.966;2023-12-07T10:24:47;21.67;;;7.63;;
70132;SDS011;57495;49.922;7.966;2023-12-07T10:26:49;23.27;;;9.18;;
70132;SDS011;57495;49.922;7.966;2023-12-07T10:28:51;20.58;;;8.15;;
70132;SDS011;57495;49.922;7.966;2023-12-07T10:30:54;28.13;;;11.52;;
70132;SDS011;57495;49.922;7.966;2023-12-07T10:32:56;24.73;;;9.43;;
70132;SDS011;57495;49.922;7.966;2023-12-07T10:34:58;24.60;;;9.73;;
70132;SDS011;57495;49.922;7.966;2023-12-07T10:37:01;22.00;;;7.97;;
70132;SDS011;57495;49.922;7.966;2023-12-07T10:39:04;22.23;;;9.18;;
70132;SDS011;57495;49.922;7.966;2023-12-07T10:41:06;22.85;;;9.05;;
70132;SDS011;57495;49.922;7.966;2023-12-07T10:43:11;19.13;;;8.18;;
70132;SDS011;57495;49.922;7.966;2023-12-07T10:45:14;26.08;;;9.20;;
70132;SDS011;57495;49.922;7.966;2023-12-07T10:47:15;21.95;;;8.68;;
70132;SDS011;57495;49.922;7.966;2023-12-07T10:49:21;20.77;;;8.35;;
70132;SDS011;57495;49.922;7.966;2023-12-07T10:51:28;21.40;;;8.20;;
70132;SDS011;57495;49.922;7.966;2023-12-07T10:53:33;22.95;;;8.27;;
70132;SDS011;57495;49.922;7.966;2023-12-07T10:55:41;22.83;;;8.68;;
70132;SDS011;57495;49.922;7.966;2023-12-07T10:57:47;20.05;;;8.02;;
70132;SDS011;57495;49.922;7.966;2023-12-07T10:59:49;21.45;;;8.73;;
70132;SDS011;57495;49.922;7.966;2023-12-07T11:01:52;20.25;;;8.15;;
70132;SDS011;57495;49.922;7.966;2023-12-07T11:03:54;25.70;;;8.88;;
70132;SDS011;57495;49.922;7.966;2023-12-07T11:05:57;22.23;;;9.10;;
70132;SDS011;57495;49.922;7.966;2023-12-07T11:07:59;20.58;;;8.45;;
70132;SDS011;57495;49.922;7.966;2023-12-07T11:10:13;23.70;;;10.43;;
70132;SDS011;57495;49.922;7.966;2023-12-07T11:12:23;24.58;;;9.32;;
70132;SDS011;57495;49.922;7.966;2023-12-07T11:14:30;27.95;;;9.90;;
70132;SDS011;57495;49.922;7.966;2023-12-07T11:16:32;24.67;;;9.48;;
70132;SDS011;57495;49.922;7.966;2023-12-07T11:18:34;28.90;;;9.80;;
70132;SDS011;57495;49.922;7.966;2023-12-07T11:20:39;26.77;;;9.15;;
70132;SDS011;57495;49.922;7.966;2023-12-07T11:22:42;22.90;;;9.43;;
70132;SDS011;57495;49.922;7.966;2023-12-07T11:24:53;25.45;;;10.57;;
70132;SDS011;57495;49.922;7.966;2023-12-07T11:26:57;29.60;;;10.63;;
70132;SDS011;57495;49.922;7.966;2023-12-07T11:28:59;23.02;;;10.15;;
70132;SDS011;57495;49.922;7.966;2023-12-07T11:31:01;26.00;;;10.05;;
70132;SDS011;57495;49.922;7.966;2023-12-07T11:33:02;24.20;;;8.88;;
70132;SDS011;57495;49.922;7.966;2023-12-07T11:35:05;20.33;;;7.97;;
70132;SDS011;57495;49.922;7.966;2023-12-07T11:37:06;15.95;;;7.32;;
70132;SDS011;57495;49.922;7.966;2023-12-07T11:39:18;19.45;;;7.50;;
70132;SDS011;57495;49.922;7.966;2023-12-07T11:41:21;18.40;;;8.07;;
70132;SDS011;57495;49.922;7.966;2023-12-07T11:43:30;19.60;;;7.60;;
70132;SDS011;57495;49.922;7.966;2023-12-07T11:45:40;20.50;;;7.95;;
70132;SDS011;57495;49.922;7.966;2023-12-07T11:47:43;20.73;;;7.47;;
70132;SDS011;57495;49.922;7.966;2023-12-07T11:49:48;19.10;;;7.57;;
70132;SDS011;57495;49.922;7.966;2023-12-07T11:51:49;22.40;;;8.07;;
70132;SDS011;57495;49.922;7.966;2023-12-07T11:53:51;19.40;;;7.75;;
70132;SDS011;57495;49.922;7.966;2023-12-07T11:55:54;16.70;;;6.95;;
70132;SDS011;57495;49.922;7.966;2023-12-07T11:57:54;17.80;;;7.57;;
70132;SDS011;57495;49.922;7.966;2023-12-07T11:59:55;16.40;;;6.68;;
70132;SDS011;57495;49.922;7.966;2023-12-07T12:01:58;16.48;;;6.00;;
70132;SDS011;57495;49.922;7.966;2023-12-07T12:04:00;14.02;;;5.63;;